Nearby METAR (Airport) Reports

 

KPRN - Greenville, Alabama, USA
Distance from station: WNW 17mi, 28km
Updated: Fri, 22-Feb-2019 4:56am CST
Overcast
Overcast
 Wind from S
Wind: S 5 mph , 7 km/h
Temperature: 72°F , 22°C
Dew Point: 66°F , 19°C
Humidity: 83%
Barometer: 30.08 inHg , 1018.6 hPa
Clouds: Overcast
Visibility: 10 miles , 16 km
Cloud details: Overcast 1400 ft
2019/02/22 10:56 KPRN 221056Z AUTO 19004KT 10SM OVC014 22/19 A3008 RMK AO2 SLP181 T02170189 $
KTOI - Troy, Alabama, USA
Distance from station: ENE 21mi, 34km
Updated: Fri, 22-Feb-2019 5:48am CST
Overcast
Overcast
 Wind from SSE
Wind: SSE 3 mph , 6 km/h
Temperature: 68°F , 20°C
Dew Point: 66°F , 19°C
Humidity: 94%
Barometer: 30.12 inHg , 1020 hPa
Clouds: Overcast
Visibility: 9 miles , 14 km
Cloud details: Mostly cloudy 1000 ft
Overcast 2200 ft
2019/02/22 11:48 KTOI 221148Z AUTO 15003KT 9SM BKN010 OVC022 20/19 A3012 RMK AO2 CIG 007V014
K79J - Andalusia/Opp Ar, Alabama, USA
Distance from station: S 29mi, 47km
Updated: Fri, 22-Feb-2019 5:13am CST
Overcast
Overcast
 Wind from S
Wind: S 3 mph , 6 km/h
Temperature: 72°F , 22°C
Dew Point: 66°F , 19°C
Humidity: 83%
Barometer: 30.10 inHg , 1019.3 hPa
Clouds: Overcast
Visibility: 10 miles , 16 km
Cloud details: Overcast 800 ft
2019/02/22 11:13 K79J 221113Z AUTO 18003KT 10SM OVC008 22/19 A3010 RMK AO2 CIG 006V011 T02220194
 
KMGM - Montgomery, Alabama, USA
Distance from station: N 39mi, 63km
Updated: Fri, 22-Feb-2019 5:44am CST
Mist, Overcast
Mist, Overcast
 Wind from ESE
Wind: ESE 5 mph , 7 km/h
Temperature: 68°F , 20°C
Dew Point: 66°F , 19°C
Humidity: 94%
Barometer: 30.09 inHg , 1019 hPa
Summary: Mist
Clouds: Overcast
Visibility: 5 miles , 8 km
Cloud details: Overcast 1700 ft
2019/02/22 11:44 KMGM 221144Z AUTO 11004KT 5SM BR OVC017 20/19 A3009 RMK AO2 T02000189
KMXF - Maxwell Afb/Mgm, Alabama, USA
Distance from station: N 44mi, 70km
Updated: Fri, 22-Feb-2019 5:11am CST
Mostly cloudy
Mostly cloudy
 Wind from calm
Wind: Calm
Temperature: 68°F , 20°C
Dew Point: 66°F , 19°C
Humidity: 94%
Barometer: 30.08 inHg , 1018.6 hPa
Clouds: Mostly cloudy
Visibility: 10 miles , 16 km
Cloud details: Mostly cloudy 1300 ft
2019/02/22 11:11 KMXF 221111Z AUTO 00000KT 10SM BKN013 20/19 A3008 RMK AO2 SLP188 $
KLOR - Lowe Ahp/Ft. Ruc, Alabama, USA
Distance from station: SE 44mi, 71km
Updated: Fri, 22-Feb-2019 5:39am CST
Light rain, Overcast
Light rain, Overcast
 Wind from calm
Wind: Calm
Temperature: 66°F , 19°C
Dew Point: 66°F , 19°C
Humidity: 100%
Barometer: 30.12 inHg , 1020 hPa
Summary: Light rain
Clouds: Overcast
Visibility: 10 miles , 16 km
Cloud details: Overcast 400 ft
2019/02/22 11:39 KLOR 221139Z AUTO 00000KT 10SM -RA OVC004 19/19 A3012 RMK AO2 RAB39 SLP181
 
KGZH - Evergreen, Alabama, USA
Distance from station: WSW 46mi, 75km
Updated: Fri, 22-Feb-2019 5:35am CST
Overcast
Overcast
 Wind from S
Wind: S 7 mph , 11 km/h
Temperature: 72°F , 22°C
Dew Point: 66°F , 19°C
Humidity: 83%
Barometer: 30.09 inHg , 1019 hPa
Clouds: Overcast
Visibility: 10 miles , 16 km
Cloud details: Overcast 600 ft
2019/02/22 11:35 KGZH 221135Z AUTO 18006KT 10SM OVC006 22/19 A3009 RMK AO2 T02220194 $
K0J4 - Florala Muni, Alabama, USA
Distance from station: S 47mi, 76km
Updated: Fri, 22-Feb-2019 5:15am CST
Overcast
Overcast
 Wind from SW
Wind: SW 3 mph , 6 km/h
Temperature: 68°F , 20°C
Dew Point: 64°F , 18°C
Humidity: 88%
Barometer: 30.13 inHg , 1020.3 hPa
Clouds: Overcast
Visibility: 10 miles , 16 km
Cloud details: Overcast 400 ft
2019/02/22 11:15 K0J4 221115Z AUTO 23003KT 10SM OVC004 20/18 A3013 RMK AO2 T02000183
KOZR - Ozark/Cairns Aaf, Alabama, USA
Distance from station: SE 49mi, 78km
Updated: Fri, 22-Feb-2019 5:01am CST
Overcast
Overcast
 Wind from S
Wind: S 3 mph , 6 km/h
Temperature: 68°F , 20°C
Dew Point: 66°F , 19°C
Humidity: 94%
Barometer: 30.11 inHg , 1019.6 hPa
Clouds: Overcast
Visibility: 8 miles , 13 km
Cloud details: Overcast 400 ft
2019/02/22 11:01 KOZR 221101Z AUTO 19003KT 8SM OVC004 20/19 A3011 RMK AO2 SLP196
 
KHEY - Ft Rucker/Hanche, Alabama, USA
Distance from station: ESE 49mi, 79km
Updated: Fri, 22-Feb-2019 5:43am CST
Overcast
Overcast
 Wind from calm
Wind: Calm
Temperature: 68°F , 20°C
Dew Point: 68°F , 20°C
Humidity: 100%
Barometer: 30.11 inHg , 1019.6 hPa
Clouds: Overcast
Visibility: 7 miles , 11 km
Cloud details: Overcast 400 ft
2019/02/22 11:43 KHEY 221143Z AUTO 00000KT 7SM OVC004 20/20 A3011 RMK AO2 SLP196
KDHN - Dothan, Alabama, USA
Distance from station: ESE 61mi, 97km
Updated: Fri, 22-Feb-2019 5:48am CST
Mist, Overcast
Mist, Overcast
 Wind from SSE
Wind: SSE 3 mph , 6 km/h
Temperature: 68°F , 20°C
Dew Point: 64°F , 18°C
Humidity: 88%
Barometer: 30.16 inHg , 1021.3 hPa
Summary: Mist
Clouds: Overcast
Visibility: 5 miles , 8 km
Cloud details: Overcast 900 ft
2019/02/22 11:48 KDHN 221148Z 15003KT 5SM BR OVC009 20/18 A3016 RMK AO2 CIG 006V013
KCEW - Crestview, Florida, USA
Distance from station: S 66mi, 107km
Updated: Fri, 22-Feb-2019 5:44am CST
Mist, Overcast
Mist, Overcast
 Wind from SE
Wind: SE 5 mph , 7 km/h
Temperature: 68°F , 20°C
Dew Point: 66°F , 19°C
Humidity: 94%
Barometer: 30.11 inHg , 1019.6 hPa
Summary: Mist
Clouds: Overcast
Visibility: 1 mile , 2 km
Cloud details: Overcast 200 ft
2019/02/22 11:44 KCEW 221144Z AUTO 13004KT 1SM BR VV002 20/19 A3011 RMK AO2 T02000194
 
KEUF - Eufaula, Alabama, USA
Distance from station: ENE 73mi, 118km
Updated: Fri, 22-Feb-2019 4:58am CST
Mist, Overcast
Mist, Overcast
 Wind from calm
Wind: Calm
Temperature: 66°F , 19°C
Dew Point: 64°F , 18°C
Humidity: 94%
Barometer: 30.11 inHg , 1019.6 hPa
Summary: Mist
Clouds: Overcast
Visibility: 4 miles , 6 km
Cloud details: Overcast 2000 ft
2019/02/22 10:58 KEUF 221058Z AUTO 00000KT 4SM BR OVC020 19/18 A3011 RMK AO2 SLP193 T01890178
KJKA - Gulf Shores, Alabama, USA
Distance from station: SSW 132mi, 212km
Updated: Fri, 22-Feb-2019 5:35am CST
Mist, Overcast
Mist, Overcast
 Wind from E
Wind: E 6 mph , 9 km/h
Barometer: 30.07 inHg , 1018.3 hPa
Summary: Mist
Clouds: Overcast
Visibility: 3/4 mile , 1.2 km
Cloud details: Overcast 300 ft
2019/02/22 11:35 KJKA 221135Z 10005KT 3/4SM BR OVC003 A3007 RMK AO2
KLSF - Ft Benning/Colum, Georgia, USA
Distance from station: SNE 89mi, 143km
Updated: Fri, 22-Feb-2019 4:56am CST
Overcast
Overcast
 Wind from SE
Wind: SE 6 mph , 9 km/h
Temperature: 63°F , 17°C
Dew Point: 63°F , 17°C
Humidity: 100%
Barometer: 30.11 inHg , 1019.6 hPa
Clouds: Overcast
Visibility: 7 miles , 11 km
Cloud details: Partly cloudy 1200 ft
Overcast 2000 ft
2019/02/22 10:56 KLSF 221056Z 14005KT 7SM SCT012 OVC020 17/17 A3011 RMK AO2A SCT V BKN SLP200 T01650165 $
 
KMOB - Mobile/Bates, Alabama, USA
Distance from station: SW 125mi, 202km
Updated: Fri, 22-Feb-2019 5:16am CST
Fog, Overcast
Fog, Overcast
 Wind from ESE
Wind: ESE 7 mph , 11 km/h
Temperature: 70°F , 21°C
Dew Point: 70°F , 21°C
Humidity: 100%
Barometer: 30.07 inHg , 1018.3 hPa
Summary: Fog
Clouds: Overcast
Visibility: 1/2 mile , 0.8 km
Cloud details: Overcast 200 ft
2019/02/22 11:16 KMOB 221116Z AUTO 12006KT 1/2SM FG VV002 21/21 A3007 RMK AO2 T02060206
KNMM - Meridian Nas, Mississippi, USA
Distance from station: WNW 151mi, 243km
Updated: Fri, 22-Feb-2019 5:46am CST
Mist, Overcast
Mist, Overcast
 Wind from calm
Wind: Calm
Temperature: 54°F , 12°C
Dew Point: 52°F , 11°C
Humidity: 94%
Barometer: 30.08 inHg , 1018.6 hPa
Summary: Mist
Clouds: Overcast
Visibility: 3/4 mile , 1.2 km
Cloud details: Overcast 300 ft
2019/02/22 11:46 KNMM 221146Z AUTO 00000KT 3/4SM BR VV003 12/11 A3008 RMK AO2 T01170111 $
KQHY - Hurlbert (Ft Walton Bch), Florida, USA
Distance from station: S 94mi, 151km
Updated: Wed, 13-Feb-2019 8:56am CST
NOT Current
Clear
Clear
 Wind from NNE
Wind: NNE 7 mph , 11 km/h
Temperature: 50°F , 10°C
Wind Chill: 47°F , 8°C
Dew Point: 30°F , -1°C
Humidity: 47%
Barometer: 30.29 inHg , 1025.7 hPa
Clouds: Clear
Visibility: 10 miles , 16 km
2019/02/13 14:56 KQHY 131456Z AUTO 02006KT 10SM CLR 10/M01 A3029 RMK AO2 SLP264 T01011006 52010 $
 
KTCL - Tuscaloosa, Alabama, USA
Distance from station: NNW 129mi, 207km
Updated: Fri, 22-Feb-2019 4:53am CST
Overcast
Overcast
 Wind from NE
Wind: NE 5 mph , 7 km/h
Temperature: 57°F , 14°C
Dew Point: 54°F , 12°C
Humidity: 88%
Barometer: 30.09 inHg , 1019 hPa
Clouds: Overcast
Visibility: 10 miles , 16 km
Cloud details: Overcast 900 ft
2019/02/22 10:53 KTCL 221053Z AUTO 05004KT 10SM OVC009 14/12 A3009 RMK AO2 CIG 007V013 SLP189 T01390117
KECP - Panama City, Florida, USA
Distance from station: SSE 122mi, 196km
Updated: Fri, 22-Feb-2019 4:53am CST
Fog, Overcast
Fog, Overcast
 Wind from E
Wind: E 3 mph , 6 km/h
Temperature: 66°F , 19°C
Dew Point: 66°F , 19°C
Humidity: 100%
Barometer: 30.10 inHg , 1019.3 hPa
Summary: Fog
Clouds: Overcast
Visibility: 1/2 mile , 0.8 km
Cloud details: Overcast 200 ft
2019/02/22 10:53 KECP 221053Z AUTO 08003KT 1/2SM FG VV002 19/19 A3010 RMK AO2 SLP203 T01940189 RVRNO
KCBM - Columbus Afb, Mississippi, USA
Distance from station: NW 175mi, 282km
Updated: Fri, 22-Feb-2019 5:16am CST
Overcast
Overcast
 Wind from NNE
Wind: NNE 7 mph , 11 km/h
Temperature: 50°F , 10°C
Wind Chill: 47°F , 8°C
Dew Point: 50°F , 10°C
Humidity: 100%
Barometer: 30.09 inHg , 1019 hPa
Clouds: Overcast
Visibility: 9 miles , 14 km
Cloud details: Overcast 400 ft
2019/02/22 11:16 KCBM 221116Z AUTO 03006KT 9SM OVC004 10/10 A3009 RMK AO2 SLP193 $
 
KBHM - Birmingham, Alabama, USA
Distance from station: N 132mi, 212km
Updated: Fri, 22-Feb-2019 5:16am CST
Overcast
Overcast
 Wind from ENE
Wind: ENE 5 mph , 7 km/h
Temperature: 54°F , 12°C
Dew Point: 52°F , 11°C
Humidity: 94%
Barometer: 30.12 inHg , 1020 hPa
Clouds: Overcast
Visibility: 10 miles , 16 km
Cloud details: Overcast 1000 ft
2019/02/22 11:16 KBHM 221116Z 06004KT 10SM OVC010 12/11 A3012 RMK AO2 CIG 008V012 T01220111
KAAF - Apalachicola, Florida, USA
Distance from station: SSE 156mi, 250km
Updated: Fri, 22-Feb-2019 4:53am CST
Mist, Overcast
Mist, Overcast
 Wind from SSE
Wind: SSE 5 mph , 7 km/h
Temperature: 66°F , 19°C
Dew Point: 66°F , 19°C
Humidity: 100%
Barometer: 30.11 inHg , 1019.6 hPa
Summary: Mist
Clouds: Overcast
Visibility: 6 miles , 10 km
Cloud details: Overcast 700 ft
2019/02/22 10:53 KAAF 221053Z AUTO 15004KT 6SM BR OVC007 19/19 A3011 RMK AO2 SLP195 T01940189
KATL - Atlanta, Georgia, USA
Distance from station: NE 177mi, 287km
Updated: Fri, 22-Feb-2019 4:52am CST
Mist, Overcast
Mist, Overcast
 Wind from NNW
Wind: NNW 6 mph , 9 km/h
Temperature: 54°F , 12°C
Dew Point: 54°F , 12°C
Humidity: 100%
Barometer: 30.12 inHg , 1020 hPa
Summary: Mist
Clouds: Overcast
Visibility: 1/2 mile , 0.8 km
Cloud details: Overcast 200 ft
2019/02/22 10:52 KATL 221052Z 33005KT 1/2SM R09R/P6000FT BR OVC002 12/12 A3012 RMK AO2 SFC VIS 3/4 SLP199 CIG 001V003 T01220117
 
KGPT - Gulfport, Mississippi, USA
Distance from station: SW 192mi, 309km
Updated: Fri, 22-Feb-2019 4:53am CST
Fog, Overcast
Fog, Overcast
 Wind from calm
Wind: Calm
Temperature: 68°F , 20°C
Dew Point: 66°F , 19°C
Humidity: 94%
Barometer: 30.03 inHg , 1016.9 hPa
Summary: Fog
Clouds: Overcast
Visibility: 1/4 mile , 0.4 km
Cloud details: Overcast 200 ft
2019/02/22 10:53 KGPT 221053Z AUTO 00000KT 1/4SM FG VV002 20/19 A3003 RMK AO2 SLP169 T02000194 RVRNO
KNEW - New Orleans/Lake, Louisiana, USA
Distance from station: SW 255mi, 410km
Updated: Fri, 22-Feb-2019 4:53am CST
Overcast
Overcast
 Wind from SSE
Wind: SSE 12 mph , 19 km/h
Temperature: 72°F , 22°C
Dew Point: 70°F , 21°C
Humidity: 94%
Barometer: 30.01 inHg , 1016.3 hPa
Clouds: Overcast
Visibility: 7 miles , 11 km
Cloud details: Overcast 700 ft
2019/02/22 10:53 KNEW 221053Z AUTO 16010KT 7SM OVC007 22/21 A3001 RMK AO2 CIG 005V012 SLP156 T02220211
KP92 - Salt Point, Louisiana, USA
Distance from station: SW 347mi, 559km
Updated: Fri, 22-Feb-2019 4:53am CST

 Wind from ESE
Wind: ESE 6 mph , 9 km/h
Barometer: 29.97 inHg , 1014.9 hPa
2019/02/22 10:53 KP92 221053Z AUTO 12005KT A2997 RMK AO1 SLP150 $